createdAt,value
2017-07-20T18:19:02.463Z,47.65
2017-07-20T18:24:56.289Z,47.38
2017-07-20T18:27:24.079Z,47.29
2017-07-20T18:29:51.587Z,47.08
2017-07-20T18:32:19.114Z,47.09
2017-07-20T18:34:46.626Z,46.95
2017-07-20T18:37:14.099Z,46.77
2017-07-20T18:39:41.612Z,46.48
2017-07-20T18:42:09.116Z,46.63
2017-07-20T18:44:36.625Z,46.76
2017-07-20T18:47:04.131Z,46.69
2017-07-20T18:49:32.710Z,46.49
2017-07-20T18:52:00.342Z,46.77
2017-07-20T18:54:27.871Z,45.58
2017-07-20T18:56:55.452Z,44.86
2017-07-20T18:59:23.381Z,44.37
2017-07-20T19:01:50.878Z,39.20
2017-07-20T19:04:18.607Z,37.61
2017-07-20T19:06:46.086Z,35.71
2017-07-20T19:09:13.555Z,35.93
2017-07-20T19:11:41.032Z,35.80
2017-07-20T19:14:08.539Z,35.73
2017-07-20T19:16:36.005Z,35.55
2017-07-20T19:19:03.500Z,35.00
2017-07-20T19:21:30.964Z,35.43
2017-07-20T19:23:58.509Z,35.41
2017-07-20T19:26:26.005Z,35.14
2017-07-20T19:28:53.472Z,35.21
2017-07-20T19:31:20.946Z,34.50
2017-07-20T19:33:49.495Z,34.68
2017-07-20T19:36:16.981Z,35.03
2017-07-20T19:38:44.432Z,33.86
2017-07-20T19:41:11.921Z,35.00
2017-07-20T19:46:32.054Z,36.64
2017-07-20T19:48:59.554Z,35.88
2017-07-20T19:51:27.427Z,35.75
2017-07-20T19:53:54.952Z,35.32
2017-07-20T19:56:22.425Z,35.10
2017-07-20T19:58:49.887Z,34.91
2017-07-20T20:01:17.366Z,34.83
2017-07-20T20:03:44.868Z,34.59
2017-07-20T20:06:12.345Z,34.76
2017-07-20T20:08:39.833Z,34.65
2017-07-20T20:11:07.298Z,34.51
2017-07-20T20:13:34.786Z,34.72
2017-07-20T20:16:02.280Z,34.55
2017-07-20T20:18:29.756Z,34.54
2017-07-20T20:20:57.270Z,34.49
2017-07-20T20:23:24.737Z,34.30
2017-07-20T20:25:52.276Z,34.25
2017-07-20T20:28:19.753Z,34.07
2017-07-20T20:30:47.403Z,34.12
2017-07-20T20:33:14.865Z,34.10
2017-07-20T20:35:42.317Z,34.26
2017-07-20T20:38:09.819Z,32.35
2017-07-20T20:40:37.298Z,63.18
2017-07-20T20:43:04.881Z,36.26
2017-07-20T20:45:32.368Z,32.73
2017-07-20T20:48:00.275Z,33.68
2017-07-20T20:50:27.766Z,33.86
2017-07-20T20:52:55.232Z,34.16
2017-07-20T20:55:22.702Z,34.15
2017-07-20T20:57:50.178Z,34.15
2017-07-20T21:00:17.721Z,34.12
2017-07-20T21:02:45.185Z,33.95
2017-07-20T21:05:12.699Z,34.10
2017-07-20T21:07:40.182Z,34.18
2017-07-20T21:10:07.650Z,34.31
2017-07-20T21:12:35.189Z,34.28
2017-07-20T21:15:02.661Z,34.36
2017-07-20T21:17:30.260Z,34.35
2017-07-20T21:19:57.762Z,34.52
2017-07-20T21:22:25.217Z,34.40
2017-07-20T21:24:52.851Z,34.32
2017-07-20T21:27:20.330Z,34.33
2017-07-20T21:29:47.831Z,34.32
2017-07-20T21:32:15.413Z,34.29
2017-07-20T21:34:42.890Z,34.28
2017-07-20T21:37:10.388Z,34.28
2017-07-20T21:39:37.848Z,34.29
2017-07-20T21:42:05.533Z,34.34
2017-07-20T21:44:33.483Z,34.34
2017-07-20T21:47:00.970Z,34.44
2017-07-20T21:49:28.733Z,34.38
2017-07-20T21:51:56.196Z,34.33
2017-07-20T21:54:23.658Z,34.30
2017-07-20T21:56:51.191Z,34.34
2017-07-20T21:59:18.687Z,34.34
2017-07-20T22:01:46.177Z,34.39
2017-07-20T22:04:13.665Z,34.47
2017-07-20T22:06:41.141Z,34.43
2017-07-20T22:09:08.653Z,34.36
2017-07-20T22:11:36.146Z,34.37
2017-07-20T22:14:03.603Z,34.32
2017-07-20T22:16:31.092Z,34.36
2017-07-20T22:18:58.542Z,34.42
2017-07-20T22:21:26.161Z,34.41
2017-07-20T22:23:53.626Z,34.40
2017-07-20T22:26:21.103Z,34.36
2017-07-20T22:28:48.644Z,34.39
2017-07-20T22:31:16.122Z,34.40
2017-07-20T22:33:43.623Z,34.40
2017-07-20T22:36:11.079Z,34.50
2017-07-20T22:38:39.592Z,34.48
2017-07-20T22:41:07.105Z,34.58
2017-07-20T22:43:34.571Z,34.61
2017-07-20T22:46:02.046Z,34.64
2017-07-20T22:48:29.642Z,34.67
2017-07-20T22:50:57.117Z,34.71
2017-07-20T22:53:24.595Z,34.71
2017-07-20T22:55:52.090Z,34.69
2017-07-20T22:58:19.562Z,34.72
2017-07-20T23:00:47.067Z,34.70
2017-07-20T23:03:14.525Z,34.73
2017-07-20T23:05:42.022Z,34.86
2017-07-20T23:08:09.512Z,34.84
2017-07-20T23:10:36.966Z,34.84
2017-07-20T23:13:04.487Z,34.86
2017-07-20T23:15:31.954Z,34.86
2017-07-20T23:17:59.450Z,34.86
2017-07-20T23:20:26.904Z,34.96
2017-07-20T23:22:54.395Z,34.88
2017-07-20T23:25:21.868Z,34.98
2017-07-20T23:27:49.371Z,34.95
2017-07-20T23:30:16.839Z,34.98
2017-07-20T23:32:44.339Z,34.90
2017-07-20T23:35:11.824Z,34.88
2017-07-20T23:37:39.314Z,34.85
2017-07-20T23:40:06.872Z,34.88
2017-07-20T23:42:34.470Z,34.95
2017-07-20T23:45:01.979Z,34.87
2017-07-20T23:47:29.928Z,34.92
2017-07-20T23:49:57.996Z,34.96
2017-07-20T23:52:25.450Z,34.90
2017-07-20T23:54:52.934Z,34.86
2017-07-20T23:57:20.408Z,34.76
2017-07-20T23:59:47.909Z,34.84
